Time;durP1;ratioP1;P1;durP2;ratioP2;P2;SDS_P1;SDS_P2;PMS_P1;PMS_P2;Temp;Humidity;BMP_temperature;BMP_pressure;BME280_temperature;BME280_humidity;BME280_pressure;Samples;Min_cycle;Max_cycle;Signal;HPM_P1;HPM_P2
2022/06/13 00:02:00;;;;;;;5.70;3.00;;;20.70;99.90;;;;;;7376756;19;21121;-77
2022/06/13 00:04:30;;;;;;;6.70;3.10;;;20.90;99.90;;;;;;7375569;19;20441;-80
2022/06/13 00:06:59;;;;;;;3.10;2.53;;;20.90;99.90;;;;;;7359396;19;20404;-79
2022/06/13 00:09:32;;;;;;;3.83;3.00;;;20.90;99.90;;;;;;7373919;19;20427;-79
2022/06/13 00:12:01;;;;;;;3.70;2.27;;;21.00;99.90;;;;;;7374950;19;20388;-80
2022/06/13 00:14:31;;;;;;;9.10;2.73;;;21.30;99.90;;;;;;7374941;19;20381;-80
2022/06/13 00:17:01;;;;;;;3.63;3.17;;;20.80;99.90;;;;;;7370725;19;20404;-81
2022/06/13 00:19:30;;;;;;;3.37;2.70;;;20.60;99.90;;;;;;7371303;19;20451;-81
2022/06/13 00:22:02;;;;;;;5.13;2.87;;;20.60;99.90;;;;;;7375668;19;20408;-81
2022/06/13 00:24:34;;;;;;;2.70;2.37;;;20.40;99.90;;;;;;7373286;19;20923;-80
2022/06/13 00:27:04;;;;;;;4.30;2.93;;;20.20;99.90;;;;;;7374488;19;20404;-81
2022/06/13 00:29:34;;;;;;;7.60;2.87;;;19.90;99.90;;;;;;7377065;19;20397;-81
2022/06/13 00:32:03;;;;;;;12.13;3.17;;;19.80;99.90;;;;;;7364049;19;20408;-79
2022/06/13 00:34:33;;;;;;;5.57;3.53;;;20.10;99.90;;;;;;7359936;19;20420;-80
2022/06/13 00:37:02;;;;;;;4.07;3.10;;;19.30;99.90;;;;;;7376210;19;20455;-80
2022/06/13 00:39:35;;;;;;;4.33;3.03;;;18.40;99.90;;;;;;7376173;19;20395;-80
2022/06/13 00:42:05;;;;;;;5.37;3.10;;;18.00;99.90;;;;;;7367179;19;20375;-80
2022/06/13 00:44:38;;;;;;;3.97;3.57;;;18.30;99.90;;;;;;7377675;19;20422;-81
2022/06/13 00:47:08;;;;;;;7.93;3.43;;;18.60;99.90;;;;;;7370163;19;20397;-81
2022/06/13 00:49:40;;;;;;;3.90;3.53;;;18.80;99.90;;;;;;7372407;19;20368;-81
2022/06/13 00:52:15;;;;;;;6.20;4.87;;;19.00;99.90;;;;;;7373481;19;20407;-81
2022/06/13 00:54:48;;;;;;;3.57;2.70;;;18.60;99.90;;;;;;7375972;19;20367;-81
2022/06/13 00:57:22;;;;;;;7.27;3.60;;;18.70;99.90;;;;;;7367055;19;20427;-81
2022/06/13 00:59:55;;;;;;;7.67;3.90;;;18.60;99.90;;;;;;7376018;19;20404;-81
2022/06/13 01:02:26;;;;;;;4.70;3.30;;;18.80;99.90;;;;;;7371983;19;20405;-81
2022/06/13 01:04:57;;;;;;;5.60;3.30;;;18.80;99.90;;;;;;7373592;19;20449;-81
2022/06/13 01:07:29;;;;;;;4.03;2.70;;;19.30;99.90;;;;;;7368524;19;20779;-80
2022/06/13 01:12:45;;;;;;;3.40;2.90;;;19.80;99.90;;;;;;7375272;19;20431;-80
2022/06/13 01:15:30;;;;;;;3.07;2.30;;;19.80;99.90;;;;;;7367887;19;20383;-81
2022/06/13 01:18:15;;;;;;;7.50;2.90;;;19.90;99.90;;;;;;7369987;19;20424;-81
2022/06/13 01:21:01;;;;;;;5.37;2.90;;;19.90;99.90;;;;;;7368420;19;20838;-81
2022/06/13 01:24:03;;;;;;;4.60;2.83;;;19.80;99.90;;;;;;7363514;19;22063;-80
2022/06/13 01:27:03;;;;;;;2.90;2.70;;;19.40;99.90;;;;;;7355225;19;20554;-79
2022/06/13 01:29:53;;;;;;;4.53;2.90;;;19.20;99.90;;;;;;7358028;19;20429;-81
2022/06/13 01:32:44;;;;;;;7.93;2.90;;;19.50;99.90;;;;;;7371430;19;20405;-80
2022/06/13 01:35:28;;;;;;;5.30;3.50;;;19.70;99.90;;;;;;7377545;19;20373;-77
2022/06/13 01:38:09;;;;;;;5.70;2.70;;;19.80;99.90;;;;;;7375784;19;20416;-80
2022/06/13 01:40:52;;;;;;;3.20;2.80;;;19.90;99.90;;;;;;7372522;19;20372;-81
2022/06/13 01:43:31;;;;;;;4.53;3.30;;;20.30;99.90;;;;;;7370201;19;20396;-82
2022/06/13 01:46:15;;;;;;;5.90;2.87;;;20.00;99.90;;;;;;7367891;19;21523;-80
2022/06/13 01:48:58;;;;;;;4.33;3.17;;;20.10;99.90;;;;;;7366239;19;20490;-81
2022/06/13 01:51:34;;;;;;;3.87;2.60;;;20.10;99.90;;;;;;7375893;19;20831;-81
2022/06/13 01:54:17;;;;;;;3.57;3.13;;;20.00;99.90;;;;;;7370357;19;20420;-82
2022/06/13 01:56:59;;;;;;;3.17;2.50;;;20.00;99.90;;;;;;7369508;19;20936;-83
2022/06/13 01:59:36;;;;;;;3.20;2.70;;;20.10;99.90;;;;;;7372887;19;21185;-83
2022/06/13 02:02:10;;;;;;;3.93;2.80;;;20.30;99.90;;;;;;7374433;19;20407;-81
2022/06/13 02:04:47;;;;;;;3.40;2.80;;;20.30;99.90;;;;;;7372887;19;20505;-81
2022/06/13 02:07:22;;;;;;;3.67;3.27;;;20.30;99.90;;;;;;7364688;19;20396;-82
2022/06/13 02:09:59;;;;;;;4.10;2.87;;;20.50;99.90;;;;;;7361290;19;20404;-83
2022/06/13 02:12:35;;;;;;;3.27;2.53;;;20.80;99.90;;;;;;7374885;19;20396;-84
2022/06/13 02:15:12;;;;;;;2.30;2.10;;;20.50;99.90;;;;;;7375595;19;20407;-83
2022/06/13 02:17:46;;;;;;;4.43;4.03;;;20.70;99.90;;;;;;7373374;19;21115;-80
2022/06/13 02:20:22;;;;;;;3.13;2.40;;;20.90;99.90;;;;;;7372649;19;20395;-81
2022/06/13 02:22:56;;;;;;;3.53;2.73;;;21.00;99.90;;;;;;7368572;19;20877;-83
2022/06/13 02:25:31;;;;;;;5.73;3.40;;;21.10;99.90;;;;;;7374232;19;20420;-83
2022/06/13 02:28:07;;;;;;;4.33;3.10;;;21.10;99.90;;;;;;7373156;19;20411;-83
2022/06/13 02:30:42;;;;;;;2.97;2.67;;;21.10;99.90;;;;;;7372919;19;20412;-82
2022/06/13 02:33:16;;;;;;;2.70;2.50;;;21.10;99.90;;;;;;7375455;19;20406;-81
2022/06/13 02:35:56;;;;;;;2.90;2.70;;;21.20;99.90;;;;;;7371730;19;20984;-82
2022/06/13 02:38:29;;;;;;;3.40;2.80;;;21.10;99.90;;;;;;7370292;19;20447;-80
2022/06/13 02:41:02;;;;;;;4.03;2.97;;;21.00;99.90;;;;;;7366236;19;20429;-83
2022/06/13 02:43:35;;;;;;;3.77;2.80;;;20.90;99.90;;;;;;7371512;19;21130;-82
2022/06/13 02:46:08;;;;;;;3.13;2.83;;;21.10;99.90;;;;;;7365547;19;20412;-82
2022/06/13 02:48:41;;;;;;;3.10;2.80;;;21.00;99.90;;;;;;7366925;19;20412;-81
2022/06/13 02:51:20;;;;;;;3.40;2.40;;;20.80;99.90;;;;;;7365839;19;20416;-81
2022/06/13 02:53:54;;;;;;;3.37;2.70;;;20.80;99.90;;;;;;7366995;19;20400;-81
2022/06/13 02:56:33;;;;;;;7.53;3.07;;;20.80;99.90;;;;;;7364547;19;20424;-83
2022/06/13 02:59:22;;;;;;;3.30;2.90;;;20.40;99.90;;;;;;7367607;19;20435;-82
2022/06/13 03:01:54;;;;;;;3.20;2.60;;;20.40;99.90;;;;;;7365317;19;20408;-82
2022/06/13 03:04:34;;;;;;;3.17;2.87;;;20.20;99.90;;;;;;7370539;19;21534;-83
2022/06/13 03:07:13;;;;;;;4.30;2.63;;;20.00;99.90;;;;;;7366910;19;21043;-83
2022/06/13 03:09:48;;;;;;;3.30;2.50;;;20.10;99.90;;;;;;7361220;19;20404;-83
2022/06/13 03:12:30;;;;;;;3.00;2.03;;;20.20;99.90;;;;;;7366982;19;20424;-83
2022/06/13 03:15:06;;;;;;;5.10;2.80;;;20.30;99.90;;;;;;7366938;19;21465;-83
2022/06/13 03:17:41;;;;;;;3.60;2.50;;;20.30;99.90;;;;;;7370823;19;20416;-83
2022/06/13 03:20:18;;;;;;;3.20;2.30;;;20.30;99.90;;;;;;7364229;19;20403;-82
2022/06/13 03:22:56;;;;;;;2.90;2.40;;;20.40;99.90;;;;;;7366421;19;20427;-83
2022/06/13 03:25:34;;;;;;;2.93;2.57;;;20.50;99.90;;;;;;7367208;19;20911;-83
2022/06/13 03:28:09;;;;;;;3.67;2.50;;;20.70;99.90;;;;;;7371406;19;20447;-81
2022/06/13 03:30:43;;;;;;;3.27;2.47;;;20.60;99.90;;;;;;7370336;19;20411;-81
2022/06/13 03:36:07;;;;;;;5.00;2.13;;;20.50;99.90;;;;;;7377077;19;20416;-83
2022/06/13 03:38:43;;;;;;;4.23;2.53;;;20.50;99.90;;;;;;7373083;19;20427;-83
2022/06/13 03:41:19;;;;;;;6.90;2.63;;;20.30;99.90;;;;;;7380711;19;20404;-84
2022/06/13 03:43:55;;;;;;;6.17;2.73;;;20.40;99.90;;;;;;7376326;19;21529;-84
2022/06/13 03:46:31;;;;;;;5.70;3.00;;;20.40;99.90;;;;;;7376453;19;20420;-82
2022/06/13 03:49:04;;;;;;;7.53;2.93;;;20.30;99.90;;;;;;7375466;19;20412;-83
2022/06/13 03:51:43;;;;;;;5.53;2.50;;;20.20;99.90;;;;;;7377218;19;20440;-83
2022/06/13 03:54:18;;;;;;;4.40;2.67;;;20.10;99.90;;;;;;7376323;19;20404;-83
2022/06/13 03:56:52;;;;;;;6.10;2.27;;;20.10;99.90;;;;;;7375114;19;20535;-83
2022/06/13 03:59:27;;;;;;;9.20;3.37;;;20.20;99.90;;;;;;7369319;19;20463;-83
2022/06/13 04:02:02;;;;;;;4.10;2.47;;;20.20;99.90;;;;;;7366688;19;20407;-83
2022/06/13 04:04:36;;;;;;;3.73;2.30;;;20.20;99.90;;;;;;7373636;19;20411;-81
2022/06/13 04:07:06;;;;;;;6.30;2.27;;;20.10;99.90;;;;;;7376665;19;20426;-80
2022/06/13 04:09:42;;;;;;;4.67;2.83;;;20.10;99.90;;;;;;7370392;19;20880;-81
2022/06/13 04:12:31;;;;;;;2.90;2.10;;;19.90;99.90;;;;;;7379216;19;20404;-82
2022/06/13 04:15:30;;;;;;;6.90;2.47;;;20.00;99.90;;;;;;7378012;19;20948;-81
2022/06/13 04:18:11;;;;;;;5.63;2.63;;;19.70;99.90;;;;;;7374791;19;20450;-81
2022/06/13 04:20:48;;;;;;;7.33;2.90;;;19.40;99.90;;;;;;7377959;19;20418;-87
2022/06/13 04:23:24;;;;;;;8.53;2.67;;;19.20;99.90;;;;;;7376389;19;20432;-83
2022/06/13 04:26:08;;;;;;;4.50;2.67;;;19.30;99.90;;;;;;7371962;19;20415;-83
2022/06/13 04:28:45;;;;;;;9.63;3.30;;;19.40;99.90;;;;;;7379256;19;20425;-84
2022/06/13 04:31:18;;;;;;;6.67;2.70;;;19.50;99.90;;;;;;7371301;19;20412;-84
2022/06/13 04:33:52;;;;;;;7.67;2.70;;;19.60;98.80;;;;;;7377112;19;20412;-83
2022/06/13 04:36:24;;;;;;;14.23;4.07;;;19.60;98.80;;;;;;7380149;19;20874;-83
2022/06/13 04:38:57;;;;;;;5.60;2.57;;;19.60;97.30;;;;;;7378331;19;20404;-83
2022/06/13 04:41:39;;;;;;;7.20;2.73;;;19.70;98.50;;;;;;7375725;19;20416;-83
2022/06/13 04:44:09;;;;;;;9.90;3.43;;;19.60;96.10;;;;;;7371672;19;20404;-82
2022/06/13 04:46:40;;;;;;;8.37;4.03;;;19.70;97.20;;;;;;7373407;19;20468;-83
2022/06/13 04:49:31;;;;;;;4.23;2.50;;;19.60;96.00;;;;;;7381814;19;20416;-83
2022/06/13 04:52:06;;;;;;;9.27;4.10;;;19.50;94.20;;;;;;7379819;19;21038;-83
2022/06/13 04:54:42;;;;;;;6.50;3.77;;;19.50;95.50;;;;;;7380615;19;20410;-83
2022/06/13 04:57:16;;;;;;;5.20;3.23;;;19.60;96.00;;;;;;7376795;19;20404;-83
2022/06/13 04:59:47;;;;;;;7.23;4.07;;;19.60;94.10;;;;;;7380900;19;20551;-82
2022/06/13 05:02:22;;;;;;;7.10;4.27;;;19.60;94.30;;;;;;7384325;19;20416;-82
2022/06/13 05:04:52;;;;;;;6.30;2.90;;;19.60;94.50;;;;;;7382584;19;20394;-81
2022/06/13 05:07:24;;;;;;;6.80;3.80;;;19.60;94.60;;;;;;7386939;19;21198;-80
2022/06/13 05:10:00;;;;;;;6.17;3.10;;;19.70;94.60;;;;;;7395186;19;20393;-81
2022/06/13 05:12:36;;;;;;;13.03;8.73;;;19.80;93.80;;;;;;7384853;19;21503;-84
2022/06/13 05:15:10;;;;;;;6.77;3.60;;;19.90;93.20;;;;;;7383144;19;20907;-84
2022/06/13 05:18:10;;;;;;;12.60;6.03;;;19.90;92.80;;;;;;7381363;19;20415;-84
2022/06/13 05:20:49;;;;;;;8.30;4.60;;;20.00;92.80;;;;;;7376978;19;20436;-84
2022/06/13 05:23:30;;;;;;;8.03;3.30;;;20.00;91.50;;;;;;7383411;19;20408;-85
2022/06/13 05:26:03;;;;;;;16.90;8.70;;;20.00;91.20;;;;;;7376952;19;20416;-84
2022/06/13 05:28:38;;;;;;;10.00;3.93;;;20.10;91.50;;;;;;7380830;19;21080;-84
2022/06/13 05:31:12;;;;;;;4.50;3.93;;;20.20;91.50;;;;;;7372659;19;20403;-82
2022/06/13 05:33:45;;;;;;;9.40;3.40;;;20.20;90.80;;;;;;7373260;19;20407;-84
2022/06/13 05:36:19;;;;;;;5.13;3.07;;;20.00;91.20;;;;;;7376985;19;20408;-84
2022/06/13 05:38:54;;;;;;;5.10;2.97;;;19.90;91.00;;;;;;7375914;19;20379;-84
2022/06/13 05:41:24;;;;;;;8.70;3.90;;;19.90;91.60;;;;;;7372105;19;20411;-84
2022/06/13 05:43:56;;;;;;;9.03;3.10;;;20.10;91.30;;;;;;7374749;19;20409;-82
2022/06/13 05:46:29;;;;;;;6.37;3.10;;;20.10;89.90;;;;;;7372023;19;20412;-83
2022/06/13 05:48:59;;;;;;;11.60;3.07;;;20.20;89.70;;;;;;7375409;19;21378;-83
2022/06/13 05:51:29;;;;;;;4.53;2.50;;;20.40;90.20;;;;;;7376680;19;20401;-82
2022/06/13 05:54:00;;;;;;;9.23;3.30;;;20.50;91.30;;;;;;7373116;19;20408;-84
2022/06/13 05:56:32;;;;;;;6.30;2.70;;;20.60;90.00;;;;;;7376170;19;20503;-83
2022/06/13 05:59:05;;;;;;;5.10;2.73;;;20.60;86.80;;;;;;7370019;19;20420;-83
2022/06/13 06:01:35;;;;;;;2.90;2.17;;;20.60;86.80;;;;;;7363431;19;20842;-82
2022/06/13 06:04:05;;;;;;;5.37;2.50;;;20.60;84.90;;;;;;7373374;19;20728;-83
2022/06/13 06:06:40;;;;;;;6.50;2.53;;;20.40;85.10;;;;;;7374489;19;20412;-83
2022/06/13 06:09:09;;;;;;;4.03;2.60;;;20.30;86.30;;;;;;7365986;19;20413;-83
2022/06/13 06:11:39;;;;;;;3.23;2.20;;;20.30;86.80;;;;;;7372073;19;20425;-82
2022/06/13 06:14:11;;;;;;;4.77;2.87;;;20.40;84.20;;;;;;7362483;19;20919;-78
2022/06/13 06:16:41;;;;;;;7.03;2.57;;;20.50;89.70;;;;;;7360371;19;20387;-81
2022/06/13 06:19:11;;;;;;;8.20;2.70;;;20.70;85.20;;;;;;7361657;19;20408;-80
2022/06/13 06:21:40;;;;;;;4.60;2.67;;;20.70;82.20;;;;;;7366042;19;20424;-80
2022/06/13 06:24:10;;;;;;;5.53;2.73;;;20.70;82.70;;;;;;7372072;19;20724;-81
2022/06/13 06:26:40;;;;;;;6.23;2.40;;;20.70;80.10;;;;;;7371396;19;20383;-81
2022/06/13 06:29:12;;;;;;;3.00;2.27;;;20.80;78.60;;;;;;7366527;19;20860;-79
2022/06/13 06:31:44;;;;;;;7.53;2.37;;;20.90;79.20;;;;;;7367683;19;21306;-79
2022/06/13 06:34:15;;;;;;;7.60;2.50;;;20.90;78.30;;;;;;7373237;19;21059;-80
2022/06/13 06:36:47;;;;;;;6.17;2.50;;;20.90;77.10;;;;;;7373237;19;22553;-85
2022/06/13 06:39:17;;;;;;;4.90;2.60;;;21.00;76.00;;;;;;7372010;19;21017;-84
2022/06/13 06:41:47;;;;;;;4.93;2.60;;;21.20;77.20;;;;;;7369892;19;20769;-83
2022/06/13 06:44:19;;;;;;;6.93;2.23;;;21.10;75.90;;;;;;7370492;19;20416;-85
2022/06/13 06:46:48;;;;;;;6.00;2.13;;;21.20;75.50;;;;;;7368783;19;20415;-82
2022/06/13 06:49:21;;;;;;;2.97;2.10;;;21.30;75.10;;;;;;7366633;19;20424;-82
2022/06/13 06:51:50;;;;;;;6.43;2.07;;;21.50;70.30;;;;;;7373056;19;20416;-80
2022/06/13 06:59:58;;;;;;;6.70;3.17;;;21.60;67.00;;;;;;7362908;19;20420;-83
2022/06/13 07:02:32;;;;;;;6.53;2.70;;;21.60;67.30;;;;;;7374772;19;20471;-88
2022/06/13 07:05:03;;;;;;;4.73;2.00;;;21.70;67.20;;;;;;7370314;19;20506;-83
2022/06/13 07:07:36;;;;;;;5.00;2.00;;;21.90;66.70;;;;;;7373909;19;20396;-84
2022/06/13 07:10:10;;;;;;;4.27;2.47;;;21.90;65.50;;;;;;7372878;19;20430;-84
2022/06/13 07:12:42;;;;;;;6.30;2.33;;;22.00;65.30;;;;;;7373557;19;20892;-80
2022/06/13 07:15:18;;;;;;;8.73;2.80;;;22.20;65.80;;;;;;7379538;19;20730;-81
2022/06/13 07:17:47;;;;;;;3.30;2.00;;;22.20;62.90;;;;;;7370655;19;20431;-83
2022/06/13 07:20:17;;;;;;;3.40;1.93;;;22.30;65.00;;;;;;7380252;19;20413;-83
2022/06/13 07:22:51;;;;;;;13.30;2.80;;;22.50;65.80;;;;;;7378146;19;20427;-79
2022/06/13 07:25:25;;;;;;;3.50;2.10;;;22.70;65.60;;;;;;7376891;19;20787;-77
2022/06/13 07:27:55;;;;;;;4.60;2.33;;;22.70;60.70;;;;;;7378698;19;20408;-78
2022/06/13 07:30:30;;;;;;;4.30;2.20;;;22.70;61.60;;;;;;7375805;19;20479;-79
2022/06/13 07:33:00;;;;;;;10.13;2.70;;;22.80;62.70;;;;;;7377031;19;20413;-79
2022/06/13 07:35:32;;;;;;;9.43;2.90;;;22.70;60.20;;;;;;7377486;19;20416;-83
2022/06/13 07:40:43;;;;;;;4.93;2.40;;;23.10;62.10;;;;;;7371494;19;20889;-82
2022/06/13 07:43:20;;;;;;;5.87;2.90;;;23.20;59.90;;;;;;7377990;19;20499;-84
2022/06/13 07:45:53;;;;;;;5.37;2.70;;;23.10;59.00;;;;;;7381443;19;20408;-84
2022/06/13 07:48:25;;;;;;;5.97;4.00;;;23.10;59.50;;;;;;7369853;19;20415;-82
2022/06/13 07:50:55;;;;;;;7.70;2.50;;;23.30;59.60;;;;;;7377960;19;20412;-78
2022/06/13 07:53:25;;;;;;;6.60;2.40;;;23.30;59.00;;;;;;7373335;19;20412;-80
2022/06/13 07:55:55;;;;;;;5.13;2.67;;;23.50;59.00;;;;;;7370095;19;20404;-81
2022/06/13 07:58:31;;;;;;;5.60;2.10;;;23.40;58.40;;;;;;7367881;19;20424;-80
2022/06/13 08:01:04;;;;;;;5.00;2.70;;;23.20;58.10;;;;;;7378051;19;20396;-80
2022/06/13 08:03:35;;;;;;;7.60;2.50;;;23.20;58.40;;;;;;7379474;19;21117;-80
2022/06/13 08:06:08;;;;;;;6.73;2.67;;;23.40;58.20;;;;;;7376709;19;20408;-80
2022/06/13 08:08:40;;;;;;;5.70;2.83;;;23.60;57.30;;;;;;7373928;19;20514;-80
2022/06/13 08:11:11;;;;;;;3.77;2.10;;;23.70;57.70;;;;;;7377546;19;20387;-83
2022/06/13 08:13:42;;;;;;;4.57;2.30;;;23.90;57.30;;;;;;7380509;19;20428;-80
2022/06/13 08:16:14;;;;;;;6.03;2.40;;;24.20;56.90;;;;;;7376233;19;20413;-82
2022/06/13 08:18:45;;;;;;;7.53;2.43;;;24.20;55.90;;;;;;7369886;19;20718;-81
2022/06/13 08:21:17;;;;;;;5.27;2.00;;;24.30;55.70;;;;;;7367619;19;20425;-81
2022/06/13 08:23:49;;;;;;;3.53;2.10;;;24.40;55.30;;;;;;7373481;19;20427;-82
2022/06/13 08:26:19;;;;;;;6.53;2.23;;;24.50;53.60;;;;;;7363037;19;20410;-80
2022/06/13 08:28:48;;;;;;;5.03;2.83;;;24.60;54.30;;;;;;7367411;19;21758;-81
2022/06/13 08:31:22;;;;;;;5.20;2.10;;;24.70;53.70;;;;;;7373195;19;20388;-82
2022/06/13 08:33:53;;;;;;;4.37;1.90;;;24.70;53.10;;;;;;7369318;19;20442;-81
2022/06/13 08:36:23;;;;;;;3.30;2.00;;;24.30;52.80;;;;;;7364787;19;20790;-80
2022/06/13 08:38:53;;;;;;;4.13;1.73;;;24.40;53.70;;;;;;7373775;19;20771;-81
2022/06/13 08:41:32;;;;;;;4.17;2.10;;;24.70;52.40;;;;;;7373856;19;20435;-81
2022/06/13 08:44:31;;;;;;;4.40;2.10;;;24.90;52.30;;;;;;7357711;19;20404;-82
2022/06/13 08:47:08;;;;;;;4.00;1.97;;;24.90;51.40;;;;;;7369543;19;20404;-78
2022/06/13 08:49:43;;;;;;;3.47;2.03;;;25.10;51.80;;;;;;7370342;19;20404;-83
2022/06/13 08:52:23;;;;;;;5.60;2.23;;;25.40;51.40;;;;;;7365536;19;20383;-82
2022/06/13 08:55:02;;;;;;;6.43;2.40;;;25.60;51.00;;;;;;7370504;19;20423;-83
2022/06/13 08:57:35;;;;;;;4.50;1.93;;;25.80;51.20;;;;;;7364054;19;20825;-83
2022/06/13 09:00:08;;;;;;;5.57;2.10;;;26.00;49.30;;;;;;7375468;19;20447;-86
2022/06/13 09:02:48;;;;;;;5.50;2.30;;;26.20;49.50;;;;;;7370739;19;20416;-86
2022/06/13 09:05:23;;;;;;;6.73;2.33;;;26.40;49.30;;;;;;7372796;19;20419;-87
2022/06/13 09:08:01;;;;;;;7.73;2.20;;;26.10;48.50;;;;;;7374651;19;20404;-86
2022/06/13 09:10:37;;;;;;;5.87;2.20;;;25.80;49.60;;;;;;7375238;19;20866;-87
2022/06/13 09:13:13;;;;;;;4.33;2.20;;;25.40;49.70;;;;;;7374722;19;20395;-87
2022/06/13 09:15:46;;;;;;;4.90;2.13;;;25.30;50.50;;;;;;7368625;19;20408;-85
2022/06/13 09:18:25;;;;;;;4.93;2.07;;;25.70;49.70;;;;;;7370094;19;20416;-86
2022/06/13 09:21:00;;;;;;;7.50;2.60;;;26.30;49.70;;;;;;7370485;19;20420;-87
2022/06/13 09:23:40;;;;;;;4.30;2.23;;;26.80;48.10;;;;;;7370186;19;20755;-84
2022/06/13 09:26:17;;;;;;;11.53;4.20;;;27.30;47.40;;;;;;7363071;19;20400;-84
2022/06/13 09:28:54;;;;;;;6.13;2.33;;;27.60;45.10;;;;;;7360310;19;20866;-86
2022/06/13 09:31:30;;;;;;;5.43;2.20;;;27.70;44.70;;;;;;7362383;19;20412;-85
2022/06/13 09:34:07;;;;;;;8.40;2.00;;;28.10;43.90;;;;;;7369183;19;20924;-84
2022/06/13 09:36:39;;;;;;;3.03;1.67;;;28.40;42.70;;;;;;7369443;19;20416;-85
2022/06/13 09:39:12;;;;;;;3.77;1.83;;;28.30;40.40;;;;;;7363768;19;20384;-86
2022/06/13 09:41:56;;;;;;;3.90;1.60;;;27.90;39.80;;;;;;7364211;19;20416;-86
2022/06/13 09:44:38;;;;;;;3.70;2.07;;;28.40;40.70;;;;;;7366118;19;20420;-86
2022/06/13 09:47:16;;;;;;;3.40;1.67;;;29.00;39.80;;;;;;7365878;19;20951;-84
2022/06/13 09:49:59;;;;;;;4.40;1.70;;;29.20;38.10;;;;;;7366021;19;20408;-82
2022/06/13 09:52:38;;;;;;;6.47;1.80;;;29.50;37.30;;;;;;7365085;19;20656;-81
2022/06/13 09:55:21;;;;;;;4.30;1.87;;;29.50;36.50;;;;;;7359219;19;20408;-82
2022/06/13 09:58:05;;;;;;;3.40;1.77;;;29.90;35.60;;;;;;7367136;19;20942;-81
2022/06/13 10:00:42;;;;;;;3.90;1.90;;;30.20;35.80;;;;;;7364648;19;20416;-82
2022/06/13 10:03:24;;;;;;;5.13;2.30;;;30.50;35.70;;;;;;7369488;19;21045;-82
2022/06/13 10:06:03;;;;;;;5.67;1.73;;;31.30;35.00;;;;;;7355222;19;20955;-80
2022/06/13 10:08:54;;;;;;;4.80;2.10;;;32.40;34.30;;;;;;7359241;19;20404;-80
2022/06/13 10:11:34;;;;;;;6.87;1.77;;;33.20;32.00;;;;;;7363926;19;20400;-82
2022/06/13 10:14:29;;;;;;;6.00;2.00;;;34.10;31.20;;;;;;7370127;19;20408;-84
2022/06/13 10:17:23;;;;;;;4.07;1.83;;;34.10;30.90;;;;;;7368922;19;20408;-85
2022/06/13 10:20:03;;;;;;;3.20;1.77;;;34.30;30.30;;;;;;7367535;19;21451;-87
2022/06/13 10:22:40;;;;;;;2.40;1.50;;;34.10;29.80;;;;;;7366129;19;20503;-85
2022/06/13 10:25:31;;;;;;;2.80;1.43;;;34.10;29.50;;;;;;7365475;19;20468;-85
2022/06/13 10:28:10;;;;;;;2.80;1.30;;;34.70;29.50;;;;;;7371967;19;20408;-85
2022/06/13 10:30:54;;;;;;;5.13;2.00;;;35.20;27.80;;;;;;7373948;19;20391;-85
2022/06/13 10:33:44;;;;;;;4.53;1.70;;;35.20;29.20;;;;;;7363098;19;20906;-84
2022/06/13 10:36:20;;;;;;;3.17;1.83;;;35.90;28.50;;;;;;7372461;19;21019;-86
2022/06/13 10:38:59;;;;;;;4.37;2.07;;;36.30;27.20;;;;;;7371820;19;20412;-86
2022/06/13 10:41:30;;;;;;;2.70;1.30;;;36.20;27.10;;;;;;7372629;19;21454;-86
2022/06/13 10:44:01;;;;;;;3.53;1.50;;;36.30;26.80;;;;;;7370122;19;20436;-84
2022/06/13 10:46:30;;;;;;;4.43;1.70;;;36.50;26.90;;;;;;7375010;19;20379;-84
2022/06/13 10:49:06;;;;;;;2.40;1.20;;;37.10;26.50;;;;;;7374480;19;20384;-85
2022/06/13 10:51:37;;;;;;;10.00;3.30;;;37.90;25.20;;;;;;7376868;19;20423;-85
2022/06/13 10:54:13;;;;;;;4.27;2.30;;;38.70;25.20;;;;;;7378118;19;20477;-84
2022/06/13 10:56:49;;;;;;;11.93;2.80;;;38.30;23.90;;;;;;7378210;19;20435;-86
2022/06/13 10:59:26;;;;;;;8.47;5.00;;;36.80;25.90;;;;;;7374002;19;20952;-84
2022/06/13 11:02:01;;;;;;;5.70;3.80;;;35.90;26.00;;;;;;7374998;19;20400;-86
2022/06/13 11:04:37;;;;;;;2.83;2.00;;;36.10;26.10;;;;;;7375891;19;20375;-86
2022/06/13 11:07:14;;;;;;;5.53;2.90;;;36.90;25.70;;;;;;7375705;19;20413;-84
2022/06/13 11:09:49;;;;;;;2.63;1.43;;;37.30;25.60;;;;;;7378379;19;20876;-86
2022/06/13 11:12:24;;;;;;;3.57;1.90;;;38.10;25.40;;;;;;7379812;19;20379;-86
2022/06/13 11:23:17;;;;;;;4.13;1.77;;;38.40;24.80;;;;;;7378437;19;20484;-85
2022/06/13 11:25:58;;;;;;;2.50;1.80;;;38.70;24.00;;;;;;7370445;19;20787;-84
2022/06/13 11:28:30;;;;;;;4.50;1.80;;;38.10;24.20;;;;;;7370517;19;20420;-82
2022/06/13 11:31:14;;;;;;;5.70;2.13;;;36.70;25.70;;;;;;7369036;19;20399;-83
2022/06/13 11:33:46;;;;;;;2.53;1.70;;;36.70;25.30;;;;;;7373630;19;20360;-82
2022/06/13 11:36:26;;;;;;;3.60;2.20;;;36.60;25.10;;;;;;7377682;19;20483;-82
2022/06/13 11:39:00;;;;;;;3.03;1.87;;;36.70;26.10;;;;;;7377012;19;20412;-83
2022/06/13 11:41:44;;;;;;;5.13;1.90;;;37.20;25.50;;;;;;7379211;19;20412;-82
2022/06/13 11:44:19;;;;;;;2.93;2.07;;;37.80;25.00;;;;;;7376289;19;20427;-83
2022/06/13 11:46:59;;;;;;;2.40;1.70;;;38.10;25.40;;;;;;7378121;19;20372;-83
2022/06/13 11:49:39;;;;;;;1.80;1.50;;;38.40;25.10;;;;;;7375954;19;20396;-83
2022/06/13 11:55:25;;;;;;;2.97;1.77;;;37.60;24.80;;;;;;7374213;19;20420;-82
2022/06/13 11:57:59;;;;;;;2.13;1.50;;;37.40;26.00;;;;;;7366506;19;20447;-83
2022/06/13 12:00:40;;;;;;;4.33;1.63;;;37.90;24.50;;;;;;7379731;19;21383;-83
2022/06/13 12:03:22;;;;;;;5.03;1.80;;;38.10;24.90;;;;;;7373677;19;20487;-82
2022/06/13 12:06:01;;;;;;;5.23;2.27;;;38.50;25.00;;;;;;7379453;19;20415;-83
2022/06/13 12:08:32;;;;;;;5.50;3.13;;;38.40;24.60;;;;;;7367482;19;20404;-82
2022/06/13 12:11:04;;;;;;;3.87;2.17;;;38.10;24.90;;;;;;7373022;19;20404;-82
2022/06/13 12:13:40;;;;;;;4.20;2.00;;;38.50;24.40;;;;;;7374400;19;20401;-83
2022/06/13 12:16:26;;;;;;;4.10;2.27;;;38.80;24.10;;;;;;7375752;19;20416;-82
2022/06/13 12:19:03;;;;;;;2.97;2.27;;;38.80;25.00;;;;;;7377185;19;20413;-83
2022/06/13 12:21:39;;;;;;;5.23;1.80;;;39.20;24.10;;;;;;7376839;19;20981;-82
2022/06/13 12:24:18;;;;;;;1.80;1.13;;;38.90;23.80;;;;;;7375388;19;20388;-83
2022/06/13 12:26:58;;;;;;;6.30;2.50;;;37.90;25.00;;;;;;7377628;19;20928;-83
2022/06/13 12:29:55;;;;;;;2.73;1.67;;;36.60;25.60;;;;;;7375700;19;21078;-83
2022/06/13 12:32:28;;;;;;;2.83;1.50;;;36.80;24.20;;;;;;7378099;19;20429;-82
2022/06/13 12:35:12;;;;;;;3.60;1.67;;;35.90;25.90;;;;;;7376839;19;20427;-83
2022/06/13 12:37:56;;;;;;;3.17;1.70;;;36.70;25.20;;;;;;7376166;19;20423;-83
2022/06/13 12:40:37;;;;;;;3.70;1.70;;;37.80;24.60;;;;;;7372488;19;21082;-82
2022/06/13 12:43:38;;;;;;;4.10;1.77;;;38.10;24.00;;;;;;7377925;19;20376;-83
2022/06/13 12:46:29;;;;;;;2.40;1.37;;;38.40;24.10;;;;;;7375084;19;21545;-83
2022/06/13 12:49:13;;;;;;;2.63;1.50;;;39.10;22.70;;;;;;7379039;19;20376;-84
2022/06/13 12:51:55;;;;;;;1.60;1.13;;;39.10;23.20;;;;;;7379054;19;20472;-83
2022/06/13 12:54:51;;;;;;;2.67;1.63;;;39.10;23.60;;;;;;7374849;19;20929;-84
2022/06/13 12:57:40;;;;;;;2.87;1.53;;;38.90;22.40;;;;;;7372646;19;20420;-83
2022/06/13 13:00:19;;;;;;;4.10;1.70;;;37.50;23.90;;;;;;7374801;19;21153;-83
2022/06/13 13:03:17;;;;;;;3.03;1.70;;;36.70;23.60;;;;;;7370531;19;20420;-83
2022/06/13 13:05:55;;;;;;;2.37;1.50;;;36.40;24.60;;;;;;7378749;19;20408;-83
2022/06/13 13:08:41;;;;;;;3.63;1.70;;;35.30;24.70;;;;;;7376360;19;20880;-83
2022/06/13 13:11:32;;;;;;;3.10;1.73;;;34.40;26.20;;;;;;7372901;19;20404;-83
2022/06/13 13:14:10;;;;;;;3.93;1.67;;;33.90;27.00;;;;;;7367646;19;21158;-84
2022/06/13 13:16:49;;;;;;;2.40;1.37;;;33.60;27.00;;;;;;7339081;19;20408;-82
2022/06/13 13:19:42;;;;;;;3.53;1.63;;;34.10;26.00;;;;;;7358991;19;21069;-83
2022/06/13 13:22:17;;;;;;;1.83;1.20;;;34.70;25.50;;;;;;7373952;19;20446;-81
2022/06/13 13:25:11;;;;;;;4.60;1.53;;;34.80;25.80;;;;;;7394746;19;20539;-43
2022/06/13 13:27:49;;;;;;;3.60;1.70;;;34.30;26.30;;;;;;7401440;19;20375;-43
2022/06/13 13:30:25;;;;;;;2.63;1.47;;;34.00;26.60;;;;;;7404474;19;20372;-42
2022/06/13 13:33:23;;;;;;;2.50;1.70;;;33.70;27.80;;;;;;7401259;19;20375;-43
2022/06/13 13:35:58;;;;;;;2.63;1.37;;;32.50;27.60;;;;;;7398142;19;20406;-42
2022/06/13 13:38:33;;;;;;;3.03;1.27;;;32.20;27.80;;;;;;7387355;19;20395;-42
2022/06/13 13:41:09;;;;;;;2.60;1.80;;;32.60;28.10;;;;;;7405197;19;20770;-42
2022/06/13 13:43:43;;;;;;;2.47;1.60;;;33.40;28.50;;;;;;7400920;19;20415;-42
2022/06/13 13:46:19;;;;;;;3.47;1.47;;;33.70;26.70;;;;;;7395339;19;20796;-42
2022/06/13 13:48:53;;;;;;;4.07;1.57;;;33.40;27.40;;;;;;7406435;19;20406;-42
2022/06/13 13:51:26;;;;;;;3.13;1.90;;;32.70;26.80;;;;;;7400514;19;20401;-42
2022/06/13 13:54:01;;;;;;;3.47;1.73;;;32.40;27.90;;;;;;7396736;19;20370;-41
2022/06/13 13:56:42;;;;;;;3.70;1.80;;;32.00;27.90;;;;;;7389011;19;20371;-42
2022/06/13 13:59:16;;;;;;;3.13;1.70;;;31.20;28.40;;;;;;7387176;19;20912;-42